Time;durP1;ratioP1;P1;durP2;ratioP2;P2;SDS_P1;SDS_P2;PMS_P1;PMS_P2;Temp;Humidity;BMP_temperature;BMP_pressure;BME280_temperature;BME280_humidity;BME280_pressure;Samples;Min_cycle;Max_cycle;Signal;HPM_P1;HPM_P2
2022/01/25 00:26:04;;;;;;;51.25;28.27;;;3.50;99.90;;;;;;5108338;28;20034;-51
2022/01/25 00:31:04;;;;;;;48.53;27.83;;;3.50;99.90;;;;;;5108223;28;20019;-51
2022/01/25 00:33:32;;;;;;;50.70;28.10;;;3.50;99.90;;;;;;5107091;28;20479;-52
2022/01/25 00:35:59;;;;;;;50.05;27.48;;;3.50;99.90;;;;;;5107272;28;20065;-51
2022/01/25 00:38:25;;;;;;;53.85;29.30;;;3.50;99.90;;;;;;5106138;28;20544;-54
2022/01/25 00:40:51;;;;;;;49.70;29.50;;;3.50;99.90;;;;;;5108736;28;20023;-53
2022/01/25 00:43:17;;;;;;;49.55;27.23;;;3.50;99.90;;;;;;5106794;28;20077;-56
2022/01/25 00:45:43;;;;;;;51.65;28.20;;;3.60;99.90;;;;;;5107116;28;20384;-53
2022/01/25 00:48:17;;;;;;;53.90;29.05;;;3.50;99.90;;;;;;5106797;28;20080;-53
2022/01/25 00:50:43;;;;;;;53.13;28.20;;;3.50;99.90;;;;;;5108512;28;20107;-54
2022/01/25 00:55:53;;;;;;;56.58;30.70;;;3.50;99.90;;;;;;5108023;28;20053;-51
2022/01/25 00:58:18;;;;;;;53.53;28.20;;;3.50;99.90;;;;;;5106835;28;20023;-52
2022/01/25 01:00:44;;;;;;;58.08;31.83;;;3.50;99.90;;;;;;5107553;28;20410;-53
2022/01/25 01:03:09;;;;;;;59.00;28.92;;;3.50;99.90;;;;;;5106715;28;20494;-55
2022/01/25 01:05:37;;;;;;;51.58;27.83;;;3.50;99.90;;;;;;5108094;28;20027;-50
2022/01/25 01:08:03;;;;;;;56.47;30.00;;;3.50;99.90;;;;;;5106802;28;20058;-52
2022/01/25 01:10:28;;;;;;;54.95;29.77;;;3.50;99.90;;;;;;5106458;28;20518;-53
2022/01/25 01:13:36;;;;;;;58.70;29.70;;;3.50;99.90;;;;;;5107173;28;20019;-52
2022/01/25 01:16:02;;;;;;;49.28;30.15;;;3.50;99.90;;;;;;5107321;28;20027;-55
2022/01/25 01:43:19;;;;;;;59.75;31.63;;;3.40;99.90;;;;;;5070293;28;20058;-50
2022/01/25 01:46:16;;;;;;;58.85;32.70;;;3.50;99.90;;;;;;5105012;28;20040;-53
2022/01/25 01:51:28;;;;;;;69.45;34.53;;;3.40;99.90;;;;;;5106408;28;20050;-52
2022/01/25 01:53:59;;;;;;;67.43;34.92;;;3.40;99.90;;;;;;5104800;28;20066;-53
2022/01/25 01:56:25;;;;;;;66.82;33.50;;;3.50;99.90;;;;;;5106345;28;20035;-51
2022/01/25 01:58:52;;;;;;;68.80;33.80;;;3.40;99.90;;;;;;5103997;28;20032;-53
2022/01/25 02:01:20;;;;;;;61.85;32.40;;;3.50;99.90;;;;;;5108252;28;20027;-57
2022/01/25 02:03:46;;;;;;;68.78;33.05;;;3.40;99.90;;;;;;5108795;28;20080;-51
2022/01/25 02:06:12;;;;;;;63.45;33.10;;;3.50;99.90;;;;;;5109922;28;20074;-53
2022/01/25 02:08:37;;;;;;;63.78;34.30;;;3.50;99.90;;;;;;5110144;28;20487;-53
2022/01/25 02:11:04;;;;;;;69.68;34.28;;;3.40;99.90;;;;;;5110593;28;20081;-52
2022/01/25 02:13:30;;;;;;;72.00;32.85;;;3.50;99.90;;;;;;5108245;28;20020;-53
2022/01/25 02:15:57;;;;;;;71.45;33.25;;;3.50;99.90;;;;;;5110506;28;20034;-51
2022/01/25 02:23:52;;;;;;;66.10;32.50;;;3.50;99.90;;;;;;5110663;28;20039;-54
2022/01/25 02:26:18;;;;;;;68.97;33.70;;;3.50;99.90;;;;;;5109644;28;20028;-56
2022/01/25 02:28:45;;;;;;;72.45;34.08;;;3.40;99.90;;;;;;5110377;28;20035;-52
2022/01/25 02:31:13;;;;;;;79.43;36.05;;;3.40;99.90;;;;;;5107904;28;20479;-55
2022/01/25 02:33:39;;;;;;;71.15;33.75;;;3.50;99.90;;;;;;5110029;28;20387;-52
2022/01/25 02:36:09;;;;;;;73.70;36.20;;;3.40;99.90;;;;;;5110102;28;20031;-53
2022/01/25 02:38:35;;;;;;;71.35;35.55;;;3.40;99.90;;;;;;5109453;28;20106;-55
2022/01/25 02:41:02;;;;;;;68.28;34.72;;;3.40;99.90;;;;;;5109901;28;20479;-53
2022/01/25 02:43:29;;;;;;;71.90;35.42;;;3.40;99.90;;;;;;5108774;28;20024;-55
2022/01/25 02:48:55;;;;;;;73.70;36.75;;;3.40;99.90;;;;;;5110057;28;20152;-53
2022/01/25 02:51:25;;;;;;;65.85;35.80;;;3.40;99.90;;;;;;5108199;28;20038;-54
2022/01/25 02:53:51;;;;;;;67.13;35.17;;;3.40;99.90;;;;;;5108929;28;20026;-53
2022/01/25 02:56:17;;;;;;;82.40;37.58;;;3.40;99.90;;;;;;5108973;28;20036;-55
2022/01/25 02:58:43;;;;;;;72.78;37.50;;;3.40;99.90;;;;;;5109712;28;20487;-56
2022/01/25 03:01:10;;;;;;;78.28;36.28;;;3.40;99.90;;;;;;5109675;28;20020;-53
2022/01/25 03:03:36;;;;;;;74.82;35.75;;;3.40;99.90;;;;;;5107203;28;20074;-51
2022/01/25 03:06:02;;;;;;;68.05;35.50;;;3.40;99.90;;;;;;5109693;27;20035;-52
2022/01/25 03:08:28;;;;;;;69.70;34.28;;;3.40;99.90;;;;;;5108658;28;20123;-53
2022/01/25 03:10:53;;;;;;;71.40;38.20;;;3.40;99.90;;;;;;5108368;28;20111;-55
2022/01/25 03:13:24;;;;;;;74.97;37.50;;;3.40;99.90;;;;;;5108641;28;20027;-55
2022/01/25 03:18:38;;;;;;;73.97;37.22;;;3.40;99.90;;;;;;5109446;28;20026;-53
2022/01/25 03:23:51;;;;;;;76.15;37.55;;;3.40;99.90;;;;;;5109463;28;20027;-50
2022/01/25 03:26:17;;;;;;;71.57;36.42;;;3.40;99.90;;;;;;5108877;28;20031;-54
2022/01/25 03:28:43;;;;;;;76.95;37.05;;;3.40;99.90;;;;;;5109448;28;20665;-51
2022/01/25 03:31:10;;;;;;;71.55;37.13;;;3.40;99.90;;;;;;5109105;28;20136;-50
2022/01/25 03:33:35;;;;;;;69.10;35.88;;;3.40;99.90;;;;;;5108365;28;20114;-52
2022/01/25 03:36:01;;;;;;;75.60;36.63;;;3.40;99.90;;;;;;5109236;28;20110;-55
2022/01/25 03:38:27;;;;;;;74.57;37.28;;;3.40;99.90;;;;;;5108118;28;20028;-52
2022/01/25 03:40:53;;;;;;;80.65;37.72;;;3.40;99.90;;;;;;5108719;28;20024;-55
2022/01/25 03:43:19;;;;;;;75.18;38.13;;;3.40;99.90;;;;;;5108159;28;20102;-55
2022/01/25 03:45:57;;;;;;;73.60;38.05;;;3.40;99.90;;;;;;5108731;28;20026;-55
2022/01/25 03:50:50;;;;;;;71.78;35.67;;;3.40;99.90;;;;;;5108527;28;20455;-55
2022/01/25 03:53:18;;;;;;;79.75;39.00;;;3.40;99.90;;;;;;5107706;28;20472;-53
2022/01/25 03:55:45;;;;;;;67.72;34.85;;;3.40;99.90;;;;;;5108684;28;20042;-53
2022/01/25 03:58:10;;;;;;;79.35;37.05;;;3.40;99.90;;;;;;5108840;28;20020;-56
2022/01/25 04:00:37;;;;;;;76.53;38.17;;;3.40;99.90;;;;;;5108373;28;20489;-51
2022/01/25 04:03:18;;;;;;;80.68;38.20;;;3.40;99.90;;;;;;5097927;28;20023;-53
2022/01/25 04:08:13;;;;;;;74.60;38.85;;;3.30;99.90;;;;;;5109103;28;20070;-57
2022/01/25 04:10:39;;;;;;;78.15;37.58;;;3.40;99.90;;;;;;5107948;28;20494;-54
2022/01/25 04:13:05;;;;;;;77.32;37.72;;;3.30;99.90;;;;;;5108400;28;20031;-52
2022/01/25 04:15:31;;;;;;;74.63;37.90;;;3.30;99.90;;;;;;5109027;28;20035;-50
2022/01/25 04:18:17;;;;;;;78.03;38.55;;;3.30;99.90;;;;;;5108404;28;20024;-51
2022/01/25 04:20:54;;;;;;;70.10;37.70;;;3.40;99.90;;;;;;5108899;28;20749;-52
2022/01/25 04:26:04;;;;;;;77.60;40.15;;;3.40;99.90;;;;;;5107826;28;20065;-53
2022/01/25 04:28:29;;;;;;;77.32;39.60;;;3.40;99.90;;;;;;5107484;28;20036;-54
2022/01/25 04:30:55;;;;;;;74.03;38.08;;;3.40;99.90;;;;;;5107913;28;20103;-54
2022/01/25 04:33:25;;;;;;;75.38;38.75;;;3.40;99.90;;;;;;5106882;28;20028;-54
2022/01/25 04:36:11;;;;;;;74.97;38.88;;;3.30;99.90;;;;;;5106761;28;20024;-51
2022/01/25 04:49:35;;;;;;;74.75;38.22;;;3.30;99.90;;;;;;5103065;28;20547;-55
2022/01/25 04:52:14;;;;;;;74.03;38.78;;;3.30;99.90;;;;;;5105016;28;20064;-54
2022/01/25 04:54:49;;;;;;;76.93;37.55;;;3.40;99.90;;;;;;5107564;28;20062;-52
2022/01/25 05:02:32;;;;;;;72.05;34.90;;;3.30;99.90;;;;;;5106589;28;20024;-56
2022/01/25 05:05:09;;;;;;;77.50;37.10;;;3.30;99.90;;;;;;5107069;28;20027;-51
2022/01/25 05:07:49;;;;;;;70.32;35.60;;;3.30;99.90;;;;;;5106685;28;20031;-54
2022/01/25 05:10:15;;;;;;;75.78;39.83;;;3.30;99.90;;;;;;5107632;28;20106;-56
2022/01/25 05:12:53;;;;;;;74.72;35.50;;;3.40;99.90;;;;;;5107194;28;20035;-54
2022/01/25 05:15:27;;;;;;;68.15;35.72;;;3.30;99.90;;;;;;5106830;28;20135;-57
2022/01/25 05:23:32;;;;;;;78.35;38.42;;;3.40;99.90;;;;;;5107070;28;20050;-52
2022/01/25 05:25:58;;;;;;;71.38;37.53;;;3.40;99.90;;;;;;5107232;28;20110;-52
2022/01/25 05:28:24;;;;;;;80.65;39.17;;;3.40;99.90;;;;;;5106811;28;20039;-53
2022/01/25 05:30:50;;;;;;;71.97;37.53;;;3.40;99.90;;;;;;5107074;28;20077;-55
2022/01/25 05:33:16;;;;;;;82.28;39.72;;;3.40;99.90;;;;;;5106431;28;20023;-55
2022/01/25 05:35:42;;;;;;;79.55;38.17;;;3.40;99.90;;;;;;5109575;28;20700;-53
2022/01/25 05:38:07;;;;;;;76.68;39.13;;;3.40;99.90;;;;;;5111894;28;20023;-52
2022/01/25 05:48:25;;;;;;;67.30;35.78;;;3.40;99.90;;;;;;5110729;28;20039;-55
2022/01/25 05:50:51;;;;;;;73.22;35.72;;;3.40;99.90;;;;;;5111312;28;20023;-55
2022/01/25 05:53:16;;;;;;;74.55;37.03;;;3.30;99.90;;;;;;5111004;28;20023;-53
2022/01/25 05:55:42;;;;;;;80.80;37.17;;;3.40;99.90;;;;;;5111054;28;20390;-54
2022/01/25 05:58:08;;;;;;;79.50;39.42;;;3.30;99.90;;;;;;5110958;28;20484;-50
2022/01/25 06:00:33;;;;;;;75.18;36.30;;;3.40;99.90;;;;;;5111924;28;20511;-52
2022/01/25 06:02:59;;;;;;;72.85;35.35;;;3.30;99.90;;;;;;5109570;28;20498;-52
2022/01/25 06:05:25;;;;;;;73.72;35.47;;;3.30;99.90;;;;;;5109252;28;20042;-57
2022/01/25 06:07:51;;;;;;;70.22;36.15;;;3.40;99.90;;;;;;5110902;28;20024;-52
2022/01/25 06:10:17;;;;;;;73.82;36.10;;;3.40;99.90;;;;;;5110588;28;20032;-52
2022/01/25 06:12:44;;;;;;;68.85;36.28;;;3.40;99.90;;;;;;5109752;28;20500;-55
2022/01/25 06:15:13;;;;;;;69.68;36.08;;;3.40;99.90;;;;;;5109952;28;20525;-54
2022/01/25 06:17:39;;;;;;;83.20;38.08;;;3.40;99.90;;;;;;5109986;28;20028;-56
2022/01/25 06:20:06;;;;;;;73.63;37.03;;;3.40;99.90;;;;;;5110276;28;20016;-53
2022/01/25 06:22:32;;;;;;;77.95;38.40;;;3.40;99.90;;;;;;5109381;28;20153;-52
2022/01/25 06:24:58;;;;;;;71.97;35.88;;;3.40;99.90;;;;;;5110489;28;20024;-51
2022/01/25 06:27:24;;;;;;;74.20;35.15;;;3.40;99.90;;;;;;5110089;28;20028;-53
2022/01/25 06:29:50;;;;;;;74.18;38.65;;;3.40;99.90;;;;;;5110212;28;20036;-54
2022/01/25 06:32:17;;;;;;;72.32;34.75;;;3.40;99.90;;;;;;5109079;28;20410;-53
2022/01/25 06:34:44;;;;;;;70.18;36.78;;;3.40;99.90;;;;;;5109812;28;20031;-55
2022/01/25 06:37:11;;;;;;;75.35;36.53;;;3.40;99.90;;;;;;5110208;28;20110;-56
2022/01/25 06:39:37;;;;;;;75.75;37.83;;;3.40;99.90;;;;;;5109759;28;20424;-53
2022/01/25 06:42:03;;;;;;;68.05;36.20;;;3.40;99.90;;;;;;5109699;28;20217;-53
2022/01/25 06:44:28;;;;;;;79.65;37.55;;;3.40;99.90;;;;;;5109309;28;20387;-51
2022/01/25 06:46:54;;;;;;;77.78;37.88;;;3.40;99.90;;;;;;5110477;28;20372;-52
2022/01/25 06:49:20;;;;;;;73.38;37.10;;;3.40;99.90;;;;;;5109869;28;20123;-54
2022/01/25 06:51:45;;;;;;;74.53;36.78;;;3.40;99.90;;;;;;5108868;28;20027;-54
2022/01/25 06:54:11;;;;;;;72.93;36.55;;;3.50;99.90;;;;;;5109899;28;20600;-51
2022/01/25 06:56:36;;;;;;;62.60;32.92;;;3.50;99.90;;;;;;5108407;28;20035;-54
2022/01/25 06:59:02;;;;;;;73.50;36.67;;;3.40;99.90;;;;;;5109938;28;20016;-56
2022/01/25 07:01:29;;;;;;;71.43;35.40;;;3.40;99.90;;;;;;5109133;28;20028;-54
2022/01/25 07:03:55;;;;;;;76.53;37.42;;;3.40;99.90;;;;;;5107001;28;20102;-55
2022/01/25 07:06:20;;;;;;;69.93;37.67;;;3.50;99.90;;;;;;5108643;28;20127;-54
2022/01/25 07:08:46;;;;;;;72.80;36.92;;;3.50;99.90;;;;;;5108074;27;20027;-55
2022/01/25 07:11:13;;;;;;;70.72;34.35;;;3.50;99.90;;;;;;5109184;28;20089;-50
2022/01/25 07:13:39;;;;;;;74.68;36.67;;;3.50;99.90;;;;;;5108592;27;20032;-54
2022/01/25 07:16:05;;;;;;;68.97;37.05;;;3.50;99.90;;;;;;5110193;27;20027;-51
2022/01/25 07:18:30;;;;;;;72.45;37.28;;;3.50;99.90;;;;;;5108683;28;20020;-52
2022/01/25 07:20:56;;;;;;;67.80;34.63;;;3.40;99.90;;;;;;5109145;27;20027;-50
2022/01/25 07:23:21;;;;;;;68.38;35.13;;;3.50;99.90;;;;;;5107666;28;20019;-55
2022/01/25 07:25:47;;;;;;;76.20;36.72;;;3.50;99.90;;;;;;5108912;28;20028;-56
2022/01/25 07:28:13;;;;;;;77.03;35.58;;;3.50;99.90;;;;;;5109214;28;20023;-53
2022/01/25 07:30:38;;;;;;;73.40;37.08;;;3.50;99.90;;;;;;5108617;27;20027;-50
2022/01/25 07:33:05;;;;;;;68.00;34.08;;;3.50;99.90;;;;;;5108679;28;20020;-54
2022/01/25 07:35:35;;;;;;;76.95;36.70;;;3.50;99.90;;;;;;5109048;28;20019;-52
2022/01/25 07:38:02;;;;;;;71.03;34.75;;;3.50;99.90;;;;;;5109455;28;20034;-49
2022/01/25 07:40:28;;;;;;;72.97;37.88;;;3.50;99.90;;;;;;5108348;28;20544;-53
2022/01/25 07:42:54;;;;;;;70.15;35.70;;;3.50;99.90;;;;;;5108500;28;20023;-56
2022/01/25 07:45:21;;;;;;;69.22;36.78;;;3.50;99.90;;;;;;5108681;28;20463;-53
2022/01/25 07:47:46;;;;;;;69.97;35.08;;;3.60;99.90;;;;;;5107668;28;20028;-52
2022/01/25 07:50:12;;;;;;;77.32;38.35;;;3.60;99.90;;;;;;5108394;28;20590;-55
2022/01/25 07:52:38;;;;;;;68.90;34.50;;;3.50;99.90;;;;;;5107531;28;20503;-53
2022/01/25 07:55:05;;;;;;;68.70;34.58;;;3.50;99.90;;;;;;5108352;28;20536;-55
2022/01/25 07:57:31;;;;;;;73.50;36.78;;;3.60;99.90;;;;;;5107409;28;20054;-54
2022/01/25 07:59:57;;;;;;;77.80;39.10;;;3.60;99.90;;;;;;5108184;28;20100;-52
2022/01/25 08:02:24;;;;;;;75.50;37.08;;;3.60;99.90;;;;;;5108188;28;20024;-51
2022/01/25 08:04:50;;;;;;;70.57;36.00;;;3.60;99.90;;;;;;5107937;28;20047;-50
2022/01/25 08:07:16;;;;;;;74.97;35.88;;;3.60;99.90;;;;;;5108061;28;20020;-50
2022/01/25 08:09:42;;;;;;;70.97;35.67;;;3.60;99.90;;;;;;5107030;28;20097;-55
2022/01/25 08:12:08;;;;;;;64.47;33.00;;;3.60;99.90;;;;;;5105176;28;20162;-53
2022/01/25 08:14:34;;;;;;;78.97;36.28;;;3.60;99.90;;;;;;5108107;28;20384;-52
2022/01/25 08:17:00;;;;;;;65.75;33.05;;;3.60;99.90;;;;;;5108133;28;20030;-52
2022/01/25 08:19:25;;;;;;;66.97;34.72;;;3.60;99.90;;;;;;5107177;28;20039;-55
2022/01/25 08:21:51;;;;;;;71.05;35.22;;;3.70;99.90;;;;;;5106761;28;20100;-54
2022/01/25 08:24:21;;;;;;;65.45;34.28;;;3.60;99.90;;;;;;5107814;28;20446;-51
2022/01/25 08:26:48;;;;;;;63.55;34.17;;;3.60;99.90;;;;;;5107775;28;20055;-52
2022/01/25 08:29:14;;;;;;;68.95;36.70;;;3.60;99.90;;;;;;5106482;28;20176;-51
2022/01/25 08:31:40;;;;;;;70.88;35.08;;;3.70;99.90;;;;;;5107584;28;20490;-54
2022/01/25 08:34:07;;;;;;;66.53;33.90;;;3.70;99.90;;;;;;5107891;28;20081;-53
2022/01/25 08:36:33;;;;;;;69.68;33.00;;;3.70;99.90;;;;;;5107717;28;20045;-54
2022/01/25 08:38:58;;;;;;;69.18;34.88;;;3.70;99.90;;;;;;5105833;28;20138;-56
2022/01/25 08:41:25;;;;;;;69.97;35.33;;;3.70;99.90;;;;;;5108438;28;20027;-53
2022/01/25 08:43:51;;;;;;;68.72;33.63;;;3.70;99.90;;;;;;5107220;28;20067;-52
2022/01/25 08:46:17;;;;;;;60.05;31.45;;;3.70;99.90;;;;;;5107876;28;20084;-53
2022/01/25 08:48:47;;;;;;;62.80;32.95;;;3.70;99.90;;;;;;5107027;28;20031;-53
2022/01/25 08:51:14;;;;;;;67.18;34.10;;;3.80;99.90;;;;;;5107515;28;20842;-50
2022/01/25 08:53:40;;;;;;;69.05;34.45;;;3.80;99.90;;;;;;5106534;28;20089;-56
2022/01/25 08:56:06;;;;;;;63.50;32.85;;;3.80;99.90;;;;;;5107251;28;20036;-53
2022/01/25 08:58:31;;;;;;;61.03;32.22;;;3.80;99.90;;;;;;5107726;28;20027;-57
2022/01/25 09:00:57;;;;;;;65.93;32.35;;;3.80;99.90;;;;;;5107430;28;20038;-54
2022/01/25 09:03:23;;;;;;;65.13;33.97;;;3.90;99.90;;;;;;5107687;28;20116;-50
2022/01/25 09:05:49;;;;;;;65.95;34.25;;;3.80;99.90;;;;;;5106747;28;20020;-53
2022/01/25 09:08:20;;;;;;;66.35;33.28;;;3.90;99.90;;;;;;5107188;28;20062;-57
2022/01/25 09:10:46;;;;;;;62.17;31.85;;;3.90;99.90;;;;;;5104258;28;20526;-51
2022/01/25 09:13:12;;;;;;;69.30;33.65;;;3.90;99.90;;;;;;5107250;28;20541;-58
2022/01/25 09:15:38;;;;;;;59.70;32.72;;;3.90;99.90;;;;;;5105762;28;20054;-53
2022/01/25 09:18:03;;;;;;;63.38;33.08;;;3.90;99.90;;;;;;5107636;28;20573;-50
2022/01/25 09:20:29;;;;;;;66.93;32.67;;;3.90;99.90;;;;;;5107123;28;20403;-53
2022/01/25 09:22:55;;;;;;;64.88;34.30;;;4.00;99.90;;;;;;5106003;28;20537;-58
2022/01/25 09:25:20;;;;;;;67.63;33.47;;;4.00;99.90;;;;;;5107421;28;20032;-53
2022/01/25 09:27:46;;;;;;;68.10;33.33;;;4.00;99.90;;;;;;5106611;28;20114;-53
2022/01/25 09:30:12;;;;;;;70.07;31.80;;;4.00;99.90;;;;;;5106848;28;20028;-53
2022/01/25 09:32:37;;;;;;;68.70;33.13;;;4.10;99.90;;;;;;5106499;28;20549;-54
2022/01/25 09:35:03;;;;;;;68.40;35.00;;;4.10;99.90;;;;;;5106916;28;20431;-56
2022/01/25 09:37:29;;;;;;;66.80;34.70;;;4.10;99.90;;;;;;5107047;28;20035;-53
2022/01/25 09:39:54;;;;;;;64.07;32.15;;;4.20;99.90;;;;;;5106044;28;20024;-54
2022/01/25 09:42:21;;;;;;;68.55;34.75;;;4.20;99.90;;;;;;5105946;28;20030;-54
2022/01/25 09:44:47;;;;;;;61.58;31.33;;;4.20;99.90;;;;;;5104577;28;20012;-54
2022/01/25 09:47:12;;;;;;;59.25;31.13;;;4.20;99.90;;;;;;5105993;28;20028;-51
2022/01/25 09:49:38;;;;;;;68.55;31.75;;;4.20;99.90;;;;;;5105055;28;20016;-51
2022/01/25 09:52:08;;;;;;;59.67;31.52;;;4.20;99.90;;;;;;5104821;28;20028;-51
2022/01/25 09:54:35;;;;;;;63.60;31.38;;;4.30;99.90;;;;;;5104625;28;20047;-55
2022/01/25 09:57:03;;;;;;;59.85;30.58;;;4.30;99.90;;;;;;5104579;28;20418;-53
2022/01/25 09:59:29;;;;;;;65.00;31.48;;;4.30;99.90;;;;;;5104035;28;20024;-55
2022/01/25 10:01:55;;;;;;;60.03;30.98;;;4.30;99.90;;;;;;5104004;28;20042;-54
2022/01/25 10:04:29;;;;;;;67.40;31.60;;;4.30;99.90;;;;;;5104080;28;20448;-50
2022/01/25 10:06:55;;;;;;;57.33;29.35;;;4.30;99.90;;;;;;5103356;28;20023;-51
2022/01/25 10:09:21;;;;;;;55.08;29.80;;;4.30;99.90;;;;;;5103435;28;20024;-50
2022/01/25 10:11:49;;;;;;;54.22;28.15;;;4.40;99.90;;;;;;5101864;28;20061;-51
2022/01/25 10:14:15;;;;;;;56.58;28.85;;;4.40;99.90;;;;;;5101469;28;20023;-53
2022/01/25 10:16:43;;;;;;;63.75;31.05;;;4.40;99.90;;;;;;5101965;28;20034;-56
2022/01/25 10:19:12;;;;;;;61.25;29.60;;;4.50;99.90;;;;;;5102525;28;20054;-54
2022/01/25 10:21:41;;;;;;;57.65;29.67;;;4.50;99.90;;;;;;5104302;28;20023;-53
2022/01/25 10:24:13;;;;;;;56.58;29.17;;;4.50;99.90;;;;;;5107222;28;20134;-51
2022/01/25 10:26:43;;;;;;;61.72;30.33;;;4.50;99.90;;;;;;5104953;28;20024;-53
2022/01/25 10:29:11;;;;;;;57.35;29.70;;;4.50;99.90;;;;;;5108480;28;20543;-56
2022/01/25 10:31:43;;;;;;;54.67;29.77;;;4.60;99.90;;;;;;5111003;28;20368;-54
2022/01/25 10:34:11;;;;;;;57.65;29.00;;;4.60;99.90;;;;;;5110630;28;20073;-52
2022/01/25 10:36:48;;;;;;;55.42;28.98;;;4.60;99.90;;;;;;5109923;28;20027;-56
2022/01/25 10:39:39;;;;;;;59.95;30.38;;;4.60;99.90;;;;;;5110138;28;20396;-52
2022/01/25 10:42:28;;;;;;;55.38;28.80;;;4.60;99.90;;;;;;5110629;28;20043;-55
2022/01/25 10:44:59;;;;;;;55.05;28.95;;;4.60;99.90;;;;;;5109270;28;20027;-52
2022/01/25 10:47:38;;;;;;;54.58;26.40;;;4.60;99.90;;;;;;5110292;28;20409;-51
2022/01/25 10:50:14;;;;;;;59.97;28.27;;;4.70;99.90;;;;;;5110052;28;20032;-54
2022/01/25 10:52:40;;;;;;;55.85;29.58;;;4.70;99.90;;;;;;5109947;28;20115;-56
2022/01/25 10:55:07;;;;;;;52.08;26.30;;;4.70;99.90;;;;;;5109634;28;20184;-54
2022/01/25 10:57:32;;;;;;;50.13;26.77;;;4.70;99.90;;;;;;5110094;28;20031;-56
2022/01/25 11:00:07;;;;;;;48.97;26.52;;;4.70;99.90;;;;;;5106874;28;20046;-53
2022/01/25 11:02:33;;;;;;;51.88;26.55;;;4.80;99.90;;;;;;5107269;28;20072;-52
2022/01/25 11:05:08;;;;;;;53.38;28.08;;;4.80;99.90;;;;;;5107796;28;20479;-55
2022/01/25 11:07:39;;;;;;;56.13;27.52;;;4.80;99.90;;;;;;5109122;28;20036;-54
2022/01/25 11:10:08;;;;;;;53.92;27.38;;;4.80;99.90;;;;;;5108586;28;20054;-58
2022/01/25 11:12:39;;;;;;;51.28;25.80;;;4.80;99.90;;;;;;5108856;28;20063;-58
2022/01/25 11:15:05;;;;;;;52.65;26.88;;;4.80;99.90;;;;;;5108397;28;20088;-53
2022/01/25 11:17:32;;;;;;;52.47;24.98;;;4.90;99.90;;;;;;5109899;28;20023;-51
2022/01/25 11:20:00;;;;;;;47.58;26.55;;;4.80;99.90;;;;;;5108042;28;20023;-53
2022/01/25 11:22:26;;;;;;;51.03;26.30;;;4.90;99.90;;;;;;5106733;28;20034;-52
2022/01/25 11:24:56;;;;;;;43.20;25.38;;;4.90;99.90;;;;;;5107358;28;20024;-52
2022/01/25 11:27:25;;;;;;;46.00;24.33;;;4.90;99.90;;;;;;5108566;28;20027;-53
2022/01/25 11:29:53;;;;;;;45.38;25.23;;;4.90;99.90;;;;;;5108276;28;20016;-54
2022/01/25 11:32:24;;;;;;;51.88;25.30;;;4.90;99.90;;;;;;5106851;28;20107;-54
2022/01/25 11:34:51;;;;;;;43.88;24.42;;;5.00;99.90;;;;;;5107777;28;20016;-51
2022/01/25 11:37:17;;;;;;;43.72;25.42;;;5.00;99.90;;;;;;5107446;28;20020;-53
2022/01/25 11:39:45;;;;;;;44.47;24.35;;;5.00;99.90;;;;;;5108648;28;20023;-56
2022/01/25 11:42:18;;;;;;;47.08;25.60;;;5.00;99.90;;;;;;5108603;28;20081;-55
2022/01/25 11:44:55;;;;;;;46.00;23.60;;;5.00;99.90;;;;;;5108386;28;20051;-53
2022/01/25 11:47:31;;;;;;;42.25;23.95;;;5.10;99.90;;;;;;5108861;28;20024;-56
2022/01/25 11:50:06;;;;;;;48.50;23.60;;;5.10;99.90;;;;;;5108074;28;20024;-55
2022/01/25 11:52:31;;;;;;;43.10;24.77;;;5.10;99.90;;;;;;5108733;28;20077;-56
2022/01/25 11:55:19;;;;;;;45.10;23.45;;;5.10;99.90;;;;;;5106412;28;20039;-53
2022/01/25 11:57:47;;;;;;;48.70;23.50;;;5.10;99.90;;;;;;5105411;28;20057;-52
2022/01/25 12:00:14;;;;;;;43.05;24.20;;;5.10;99.90;;;;;;5106545;28;20275;-56
2022/01/25 12:02:44;;;;;;;45.45;23.30;;;5.10;99.90;;;;;;5105658;28;20024;-52
2022/01/25 12:05:12;;;;;;;45.40;23.77;;;5.10;99.90;;;;;;5105439;28;20115;-56
2022/01/25 12:07:41;;;;;;;47.53;23.10;;;5.10;99.90;;;;;;5106040;28;20511;-54
2022/01/25 12:10:29;;;;;;;50.45;23.40;;;5.10;99.90;;;;;;5104709;28;20031;-52
2022/01/25 12:13:13;;;;;;;40.67;22.77;;;5.10;99.90;;;;;;5104197;28;20513;-52
2022/01/25 12:15:40;;;;;;;41.33;22.77;;;5.20;99.90;;;;;;5104512;28;20023;-54
2022/01/25 12:18:10;;;;;;;40.65;21.55;;;5.20;99.90;;;;;;5104017;28;21427;-54
2022/01/25 12:20:47;;;;;;;43.42;21.02;;;5.20;99.90;;;;;;5102881;28;20027;-53
2022/01/25 12:23:18;;;;;;;37.78;22.80;;;5.20;99.90;;;;;;5103391;28;20024;-53
2022/01/25 12:25:51;;;;;;;37.40;22.30;;;5.20;99.90;;;;;;5107408;28;20027;-52
2022/01/25 12:28:30;;;;;;;37.10;20.48;;;5.20;99.90;;;;;;5107777;28;20110;-52
2022/01/25 12:31:00;;;;;;;42.08;19.92;;;5.20;99.90;;;;;;5107040;28;20031;-54
2022/01/25 12:33:33;;;;;;;39.15;21.10;;;5.30;99.90;;;;;;5107644;28;20480;-54
2022/01/25 12:36:03;;;;;;;34.13;20.00;;;5.30;99.90;;;;;;5105198;28;20112;-56
2022/01/25 12:38:47;;;;;;;34.85;19.67;;;5.20;99.90;;;;;;5107779;28;20619;-56
2022/01/25 12:41:20;;;;;;;35.97;18.98;;;5.20;99.90;;;;;;5106986;28;20167;-52
2022/01/25 12:43:53;;;;;;;39.83;19.38;;;5.30;99.90;;;;;;5107025;28;20026;-51
2022/01/25 12:46:40;;;;;;;35.85;18.25;;;5.20;99.90;;;;;;5107973;28;20045;-55
2022/01/25 12:49:13;;;;;;;35.92;18.33;;;5.30;99.90;;;;;;5107868;28;20023;-53
2022/01/25 12:51:41;;;;;;;34.22;18.98;;;5.30;99.90;;;;;;5106819;28;20032;-52
2022/01/25 12:54:10;;;;;;;33.45;17.58;;;5.30;99.90;;;;;;5107224;28;20028;-54
2022/01/25 12:56:40;;;;;;;37.35;19.42;;;5.30;99.90;;;;;;5098759;28;20084;-54
2022/01/25 12:59:09;;;;;;;36.00;19.48;;;5.30;99.90;;;;;;5106806;28;20476;-53
2022/01/25 13:01:37;;;;;;;32.00;17.98;;;5.30;99.90;;;;;;5106702;28;20023;-53
2022/01/25 13:04:05;;;;;;;38.58;18.70;;;5.30;99.90;;;;;;5106790;28;20023;-53
2022/01/25 13:06:39;;;;;;;32.40;17.33;;;5.30;99.90;;;;;;5107666;28;20046;-54
2022/01/25 13:09:11;;;;;;;31.55;17.63;;;5.30;99.90;;;;;;5107252;28;20153;-53
2022/01/25 13:16:59;;;;;;;30.60;16.13;;;5.40;99.90;;;;;;5106740;28;20118;-58
2022/01/25 13:19:33;;;;;;;29.42;16.02;;;5.40;99.90;;;;;;5107487;28;20027;-56
2022/01/25 13:22:06;;;;;;;30.17;15.80;;;5.30;99.90;;;;;;5106202;28;20043;-59
2022/01/25 13:24:36;;;;;;;30.55;17.40;;;5.30;99.90;;;;;;5106950;28;20024;-55
2022/01/25 13:27:05;;;;;;;27.25;14.55;;;5.40;99.90;;;;;;5106196;28;20051;-54
2022/01/25 13:32:32;;;;;;;30.90;16.85;;;5.40;99.90;;;;;;5107321;28;20187;-55
2022/01/25 13:35:02;;;;;;;29.30;15.65;;;5.40;99.90;;;;;;5106043;28;20037;-58
2022/01/25 13:37:28;;;;;;;29.63;15.90;;;5.40;99.90;;;;;;5106474;28;20511;-52
2022/01/25 13:39:59;;;;;;;26.98;15.65;;;5.40;99.90;;;;;;5106397;28;20107;-58
2022/01/25 13:42:43;;;;;;;26.95;15.73;;;5.40;99.90;;;;;;5106158;28;20023;-56
2022/01/25 13:48:07;;;;;;;27.23;14.45;;;5.40;99.90;;;;;;5106307;28;20034;-55
2022/01/25 13:50:35;;;;;;;22.58;13.65;;;5.40;99.90;;;;;;5107097;28;20043;-53
2022/01/25 13:53:02;;;;;;;27.08;14.43;;;5.40;99.90;;;;;;5105814;28;20019;-55
2022/01/25 13:55:28;;;;;;;23.65;13.68;;;5.30;99.90;;;;;;5107924;28;20035;-51
2022/01/25 13:57:54;;;;;;;27.65;14.57;;;5.40;99.90;;;;;;5110687;28;20020;-54
2022/01/25 14:00:20;;;;;;;29.15;13.13;;;5.30;99.90;;;;;;5109860;28;20047;-54
2022/01/25 14:02:52;;;;;;;27.67;14.32;;;5.40;99.90;;;;;;5110145;28;20020;-54
2022/01/25 14:05:18;;;;;;;27.60;13.60;;;5.30;99.90;;;;;;5111238;28;20104;-53
2022/01/25 14:07:48;;;;;;;26.35;13.45;;;5.30;99.90;;;;;;5110963;28;20051;-52
2022/01/25 14:10:21;;;;;;;31.55;15.10;;;5.30;99.90;;;;;;5110141;28;20046;-56
2022/01/25 14:23:46;;;;;;;23.25;13.00;;;5.30;99.90;;;;;;5109869;28;20031;-55
2022/01/25 14:26:12;;;;;;;21.40;12.57;;;5.30;99.90;;;;;;5110182;28;20036;-53
2022/01/25 14:28:42;;;;;;;28.45;13.05;;;5.20;99.90;;;;;;5110300;28;20487;-54
2022/01/25 14:31:16;;;;;;;24.42;13.50;;;5.30;99.90;;;;;;5110565;28;20453;-54
2022/01/25 14:33:51;;;;;;;23.52;12.32;;;5.30;99.90;;;;;;5111069;28;20024;-59
2022/01/25 14:36:17;;;;;;;22.80;13.30;;;5.30;99.90;;;;;;5110965;28;20466;-56
2022/01/25 14:38:45;;;;;;;22.77;12.60;;;5.30;99.90;;;;;;5109986;28;20059;-56
2022/01/25 14:41:14;;;;;;;22.90;13.77;;;5.30;99.90;;;;;;5110401;28;20019;-52
2022/01/25 14:43:51;;;;;;;23.25;12.13;;;5.30;99.90;;;;;;5109787;28;20020;-54
2022/01/25 14:46:19;;;;;;;22.73;12.35;;;5.30;99.90;;;;;;5110051;28;20465;-52
2022/01/25 14:48:55;;;;;;;27.70;12.55;;;5.20;99.90;;;;;;5109268;28;20024;-54
2022/01/25 14:51:20;;;;;;;23.17;11.98;;;5.20;99.90;;;;;;5109666;28;20050;-55
2022/01/25 14:53:52;;;;;;;22.10;12.18;;;5.20;99.90;;;;;;5108713;28;20491;-55